sensor_id;sensor_type;location;lat;lon;timestamp;P1;durP1;ratioP1;P2;durP2;ratioP2
870;SDS011;422;51.280;7.236;2024-01-10T00:00:11;15.13;;;10.23;;
870;SDS011;422;51.280;7.236;2024-01-10T00:02:39;17.27;;;11.10;;
870;SDS011;422;51.280;7.236;2024-01-10T00:05:06;13.80;;;9.27;;
870;SDS011;422;51.280;7.236;2024-01-10T00:07:34;16.30;;;10.60;;
870;SDS011;422;51.280;7.236;2024-01-10T00:10:02;14.53;;;10.00;;
870;SDS011;422;51.280;7.236;2024-01-10T00:12:30;19.60;;;11.90;;
870;SDS011;422;51.280;7.236;2024-01-10T00:15:03;19.07;;;11.57;;
870;SDS011;422;51.280;7.236;2024-01-10T00:17:31;14.00;;;10.07;;
870;SDS011;422;51.280;7.236;2024-01-10T00:19:58;16.60;;;10.90;;
870;SDS011;422;51.280;7.236;2024-01-10T00:22:26;15.07;;;10.50;;
870;SDS011;422;51.280;7.236;2024-01-10T00:24:54;14.10;;;9.53;;
870;SDS011;422;51.280;7.236;2024-01-10T00:27:21;15.00;;;10.17;;
870;SDS011;422;51.280;7.236;2024-01-10T00:29:49;17.23;;;10.43;;
870;SDS011;422;51.280;7.236;2024-01-10T00:32:18;17.50;;;11.10;;
870;SDS011;422;51.280;7.236;2024-01-10T00:34:45;16.47;;;11.60;;
870;SDS011;422;51.280;7.236;2024-01-10T00:37:13;20.53;;;11.93;;
870;SDS011;422;51.280;7.236;2024-01-10T00:39:41;15.20;;;10.23;;
870;SDS011;422;51.280;7.236;2024-01-10T00:42:08;26.57;;;15.47;;
870;SDS011;422;51.280;7.236;2024-01-10T00:44:35;46.60;;;24.10;;
870;SDS011;422;51.280;7.236;2024-01-10T00:47:04;36.53;;;19.53;;
870;SDS011;422;51.280;7.236;2024-01-10T00:49:33;29.63;;;18.67;;
870;SDS011;422;51.280;7.236;2024-01-10T00:52:01;28.40;;;19.60;;
870;SDS011;422;51.280;7.236;2024-01-10T00:54:29;19.60;;;13.03;;
870;SDS011;422;51.280;7.236;2024-01-10T00:56:56;16.17;;;11.50;;
870;SDS011;422;51.280;7.236;2024-01-10T00:59:23;18.00;;;11.07;;
870;SDS011;422;51.280;7.236;2024-01-10T01:01:51;15.30;;;9.77;;
870;SDS011;422;51.280;7.236;2024-01-10T01:04:18;15.77;;;10.20;;
870;SDS011;422;51.280;7.236;2024-01-10T01:06:47;16.80;;;9.57;;
870;SDS011;422;51.280;7.236;2024-01-10T01:09:14;15.30;;;10.10;;
870;SDS011;422;51.280;7.236;2024-01-10T01:11:41;16.10;;;10.57;;
870;SDS011;422;51.280;7.236;2024-01-10T01:14:09;15.90;;;10.27;;
870;SDS011;422;51.280;7.236;2024-01-10T01:16:36;16.70;;;9.77;;
870;SDS011;422;51.280;7.236;2024-01-10T01:19:03;16.60;;;11.50;;
870;SDS011;422;51.280;7.236;2024-01-10T01:21:30;17.40;;;11.23;;
870;SDS011;422;51.280;7.236;2024-01-10T01:23:59;15.93;;;9.90;;
870;SDS011;422;51.280;7.236;2024-01-10T01:26:26;14.20;;;10.40;;
870;SDS011;422;51.280;7.236;2024-01-10T01:28:54;16.00;;;9.90;;
870;SDS011;422;51.280;7.236;2024-01-10T01:31:21;16.93;;;10.50;;
870;SDS011;422;51.280;7.236;2024-01-10T01:33:49;15.80;;;10.13;;
870;SDS011;422;51.280;7.236;2024-01-10T01:36:16;15.87;;;10.70;;
870;SDS011;422;51.280;7.236;2024-01-10T01:38:43;17.00;;;9.87;;
870;SDS011;422;51.280;7.236;2024-01-10T01:41:12;15.20;;;9.90;;
870;SDS011;422;51.280;7.236;2024-01-10T01:43:42;15.30;;;9.70;;
870;SDS011;422;51.280;7.236;2024-01-10T01:46:11;15.90;;;9.93;;
870;SDS011;422;51.280;7.236;2024-01-10T01:48:39;15.40;;;10.20;;
870;SDS011;422;51.280;7.236;2024-01-10T01:51:07;15.87;;;9.80;;
870;SDS011;422;51.280;7.236;2024-01-10T01:53:35;19.10;;;11.00;;
870;SDS011;422;51.280;7.236;2024-01-10T01:56:05;17.23;;;11.10;;
870;SDS011;422;51.280;7.236;2024-01-10T01:58:35;17.30;;;10.90;;
870;SDS011;422;51.280;7.236;2024-01-10T02:01:03;16.27;;;11.57;;
870;SDS011;422;51.280;7.236;2024-01-10T02:03:31;17.67;;;11.10;;
870;SDS011;422;51.280;7.236;2024-01-10T02:05:59;18.47;;;12.00;;
870;SDS011;422;51.280;7.236;2024-01-10T02:08:28;17.10;;;11.67;;
870;SDS011;422;51.280;7.236;2024-01-10T02:10:56;18.40;;;11.83;;
870;SDS011;422;51.280;7.236;2024-01-10T02:13:23;19.43;;;10.80;;
870;SDS011;422;51.280;7.236;2024-01-10T02:15:52;19.37;;;12.63;;
870;SDS011;422;51.280;7.236;2024-01-10T02:18:20;16.53;;;10.40;;
870;SDS011;422;51.280;7.236;2024-01-10T02:20:47;14.83;;;10.23;;
870;SDS011;422;51.280;7.236;2024-01-10T02:23:17;14.10;;;10.10;;
870;SDS011;422;51.280;7.236;2024-01-10T02:25:46;17.40;;;10.90;;
870;SDS011;422;51.280;7.236;2024-01-10T02:28:13;17.33;;;10.70;;
870;SDS011;422;51.280;7.236;2024-01-10T02:30:40;13.87;;;10.07;;
870;SDS011;422;51.280;7.236;2024-01-10T02:33:07;14.93;;;10.60;;
870;SDS011;422;51.280;7.236;2024-01-10T02:35:35;15.00;;;10.30;;
870;SDS011;422;51.280;7.236;2024-01-10T02:38:02;15.90;;;11.03;;
870;SDS011;422;51.280;7.236;2024-01-10T02:40:30;15.50;;;11.37;;
870;SDS011;422;51.280;7.236;2024-01-10T02:42:59;15.47;;;11.90;;
870;SDS011;422;51.280;7.236;2024-01-10T02:45:26;18.60;;;12.17;;
870;SDS011;422;51.280;7.236;2024-01-10T02:47:53;17.10;;;11.27;;
870;SDS011;422;51.280;7.236;2024-01-10T02:50:21;15.20;;;11.80;;
870;SDS011;422;51.280;7.236;2024-01-10T02:52:48;16.30;;;11.03;;
870;SDS011;422;51.280;7.236;2024-01-10T02:55:15;18.20;;;11.90;;
870;SDS011;422;51.280;7.236;2024-01-10T02:57:43;17.30;;;11.53;;
870;SDS011;422;51.280;7.236;2024-01-10T03:00:13;15.43;;;11.30;;
870;SDS011;422;51.280;7.236;2024-01-10T03:02:40;18.50;;;11.70;;
870;SDS011;422;51.280;7.236;2024-01-10T03:05:07;20.80;;;11.60;;
870;SDS011;422;51.280;7.236;2024-01-10T03:07:34;16.27;;;10.67;;
870;SDS011;422;51.280;7.236;2024-01-10T03:10:02;16.07;;;10.87;;
870;SDS011;422;51.280;7.236;2024-01-10T03:12:30;15.97;;;11.23;;
870;SDS011;422;51.280;7.236;2024-01-10T03:14:57;17.07;;;12.03;;
870;SDS011;422;51.280;7.236;2024-01-10T03:17:26;17.83;;;12.23;;
870;SDS011;422;51.280;7.236;2024-01-10T03:19:53;17.80;;;12.10;;
870;SDS011;422;51.280;7.236;2024-01-10T03:22:21;17.50;;;11.57;;
870;SDS011;422;51.280;7.236;2024-01-10T03:24:48;16.13;;;11.87;;
870;SDS011;422;51.280;7.236;2024-01-10T03:27:16;17.03;;;10.57;;
870;SDS011;422;51.280;7.236;2024-01-10T03:29:43;18.33;;;11.53;;
870;SDS011;422;51.280;7.236;2024-01-10T03:32:10;13.73;;;9.83;;
870;SDS011;422;51.280;7.236;2024-01-10T03:34:40;17.20;;;12.10;;
870;SDS011;422;51.280;7.236;2024-01-10T03:37:08;18.13;;;11.57;;
870;SDS011;422;51.280;7.236;2024-01-10T03:39:36;15.50;;;10.93;;
870;SDS011;422;51.280;7.236;2024-01-10T03:42:03;21.77;;;12.73;;
870;SDS011;422;51.280;7.236;2024-01-10T03:44:30;19.20;;;11.33;;
870;SDS011;422;51.280;7.236;2024-01-10T03:46:58;17.60;;;10.70;;
870;SDS011;422;51.280;7.236;2024-01-10T03:49:25;18.80;;;10.43;;
870;SDS011;422;51.280;7.236;2024-01-10T03:51:54;20.27;;;11.03;;
870;SDS011;422;51.280;7.236;2024-01-10T03:54:22;15.97;;;11.17;;
870;SDS011;422;51.280;7.236;2024-01-10T03:56:49;17.60;;;11.17;;
870;SDS011;422;51.280;7.236;2024-01-10T03:59:17;17.00;;;10.77;;
870;SDS011;422;51.280;7.236;2024-01-10T04:01:44;15.83;;;11.10;;
870;SDS011;422;51.280;7.236;2024-01-10T04:04:12;17.30;;;10.70;;
870;SDS011;422;51.280;7.236;2024-01-10T04:06:39;16.70;;;10.93;;
870;SDS011;422;51.280;7.236;2024-01-10T04:09:08;15.40;;;11.87;;
870;SDS011;422;51.280;7.236;2024-01-10T04:11:36;14.87;;;10.83;;
870;SDS011;422;51.280;7.236;2024-01-10T04:14:03;21.93;;;13.57;;
870;SDS011;422;51.280;7.236;2024-01-10T04:16:31;18.73;;;13.10;;
870;SDS011;422;51.280;7.236;2024-01-10T04:18:59;18.93;;;12.80;;
870;SDS011;422;51.280;7.236;2024-01-10T04:21:26;24.27;;;15.00;;
870;SDS011;422;51.280;7.236;2024-01-10T04:23:54;37.00;;;21.43;;
870;SDS011;422;51.280;7.236;2024-01-10T04:26:24;35.60;;;21.77;;
870;SDS011;422;51.280;7.236;2024-01-10T04:28:51;33.83;;;21.20;;
870;SDS011;422;51.280;7.236;2024-01-10T04:31:18;36.43;;;22.77;;
870;SDS011;422;51.280;7.236;2024-01-10T04:33:46;28.47;;;17.50;;
870;SDS011;422;51.280;7.236;2024-01-10T04:36:14;24.60;;;13.77;;
870;SDS011;422;51.280;7.236;2024-01-10T04:38:42;19.07;;;14.53;;
870;SDS011;422;51.280;7.236;2024-01-10T04:41:09;20.70;;;14.50;;
870;SDS011;422;51.280;7.236;2024-01-10T04:43:38;19.50;;;13.37;;
870;SDS011;422;51.280;7.236;2024-01-10T04:46:06;17.90;;;12.90;;
870;SDS011;422;51.280;7.236;2024-01-10T04:48:35;17.37;;;14.50;;
870;SDS011;422;51.280;7.236;2024-01-10T04:51:02;21.30;;;15.37;;
870;SDS011;422;51.280;7.236;2024-01-10T04:53:30;23.60;;;15.87;;
870;SDS011;422;51.280;7.236;2024-01-10T04:55:58;24.13;;;16.30;;
870;SDS011;422;51.280;7.236;2024-01-10T04:58:26;21.17;;;12.60;;
870;SDS011;422;51.280;7.236;2024-01-10T05:00:56;19.40;;;12.07;;
870;SDS011;422;51.280;7.236;2024-01-10T05:03:23;20.87;;;13.07;;
870;SDS011;422;51.280;7.236;2024-01-10T05:05:50;32.17;;;20.20;;
870;SDS011;422;51.280;7.236;2024-01-10T05:08:17;33.63;;;19.70;;
870;SDS011;422;51.280;7.236;2024-01-10T05:10:45;28.43;;;18.10;;
870;SDS011;422;51.280;7.236;2024-01-10T05:13:12;23.07;;;14.90;;
870;SDS011;422;51.280;7.236;2024-01-10T05:15:40;25.67;;;16.70;;
870;SDS011;422;51.280;7.236;2024-01-10T05:18:09;19.13;;;13.47;;
870;SDS011;422;51.280;7.236;2024-01-10T05:20:37;23.30;;;15.17;;
870;SDS011;422;51.280;7.236;2024-01-10T05:23:04;22.00;;;14.57;;
870;SDS011;422;51.280;7.236;2024-01-10T05:25:31;26.77;;;17.80;;
870;SDS011;422;51.280;7.236;2024-01-10T05:27:59;22.87;;;16.30;;
870;SDS011;422;51.280;7.236;2024-01-10T05:30:26;22.07;;;16.43;;
870;SDS011;422;51.280;7.236;2024-01-10T05:32:55;22.83;;;14.40;;
870;SDS011;422;51.280;7.236;2024-01-10T05:35:24;30.00;;;17.80;;
870;SDS011;422;51.280;7.236;2024-01-10T05:37:52;23.70;;;15.90;;
870;SDS011;422;51.280;7.236;2024-01-10T05:40:19;23.73;;;15.57;;
870;SDS011;422;51.280;7.236;2024-01-10T05:42:47;22.20;;;14.97;;
870;SDS011;422;51.280;7.236;2024-01-10T05:45:15;19.93;;;12.97;;
870;SDS011;422;51.280;7.236;2024-01-10T05:47:43;17.60;;;12.67;;
870;SDS011;422;51.280;7.236;2024-01-10T05:50:10;24.00;;;14.50;;
870;SDS011;422;51.280;7.236;2024-01-10T05:52:39;17.53;;;12.17;;
870;SDS011;422;51.280;7.236;2024-01-10T05:55:06;18.93;;;13.37;;
870;SDS011;422;51.280;7.236;2024-01-10T05:57:34;21.93;;;13.33;;
870;SDS011;422;51.280;7.236;2024-01-10T06:00:01;24.10;;;15.17;;
870;SDS011;422;51.280;7.236;2024-01-10T06:02:30;23.63;;;14.47;;
870;SDS011;422;51.280;7.236;2024-01-10T06:04:57;21.00;;;15.10;;
870;SDS011;422;51.280;7.236;2024-01-10T06:07:25;23.07;;;15.50;;
870;SDS011;422;51.280;7.236;2024-01-10T06:09:54;23.10;;;15.00;;
870;SDS011;422;51.280;7.236;2024-01-10T06:12:21;26.30;;;14.80;;
870;SDS011;422;51.280;7.236;2024-01-10T06:14:49;27.33;;;16.40;;
870;SDS011;422;51.280;7.236;2024-01-10T06:17:17;22.20;;;14.20;;
870;SDS011;422;51.280;7.236;2024-01-10T06:19:44;20.10;;;11.80;;
870;SDS011;422;51.280;7.236;2024-01-10T06:22:12;12.97;;;11.07;;
870;SDS011;422;51.280;7.236;2024-01-10T06:24:39;18.90;;;13.27;;
870;SDS011;422;51.280;7.236;2024-01-10T06:27:08;21.47;;;12.87;;
870;SDS011;422;51.280;7.236;2024-01-10T06:29:36;20.60;;;13.37;;
870;SDS011;422;51.280;7.236;2024-01-10T06:32:04;23.50;;;15.20;;
870;SDS011;422;51.280;7.236;2024-01-10T06:34:31;21.37;;;14.97;;
870;SDS011;422;51.280;7.236;2024-01-10T06:36:59;20.07;;;13.90;;
870;SDS011;422;51.280;7.236;2024-01-10T06:39:26;20.33;;;14.00;;
870;SDS011;422;51.280;7.236;2024-01-10T06:41:54;25.57;;;12.47;;
870;SDS011;422;51.280;7.236;2024-01-10T06:44:24;20.33;;;13.03;;
870;SDS011;422;51.280;7.236;2024-01-10T06:46:53;19.40;;;12.20;;
870;SDS011;422;51.280;7.236;2024-01-10T06:49:20;21.47;;;12.00;;
870;SDS011;422;51.280;7.236;2024-01-10T06:51:48;17.27;;;12.27;;
870;SDS011;422;51.280;7.236;2024-01-10T06:54:15;22.77;;;12.10;;
870;SDS011;422;51.280;7.236;2024-01-10T06:56:43;20.93;;;12.80;;
870;SDS011;422;51.280;7.236;2024-01-10T06:59:11;19.60;;;12.00;;
870;SDS011;422;51.280;7.236;2024-01-10T07:01:39;22.50;;;13.03;;
870;SDS011;422;51.280;7.236;2024-01-10T07:04:07;24.27;;;13.23;;
870;SDS011;422;51.280;7.236;2024-01-10T07:06:34;20.60;;;14.13;;
870;SDS011;422;51.280;7.236;2024-01-10T07:09:01;19.27;;;12.70;;
870;SDS011;422;51.280;7.236;2024-01-10T07:11:30;24.47;;;15.77;;
870;SDS011;422;51.280;7.236;2024-01-10T07:13:57;24.73;;;15.20;;
870;SDS011;422;51.280;7.236;2024-01-10T07:16:26;28.90;;;19.17;;
870;SDS011;422;51.280;7.236;2024-01-10T07:18:54;27.00;;;19.40;;
870;SDS011;422;51.280;7.236;2024-01-10T07:21:22;23.33;;;15.60;;
870;SDS011;422;51.280;7.236;2024-01-10T07:23:49;33.10;;;18.23;;
870;SDS011;422;51.280;7.236;2024-01-10T07:26:16;28.77;;;18.43;;
870;SDS011;422;51.280;7.236;2024-01-10T07:28:44;22.57;;;15.30;;
870;SDS011;422;51.280;7.236;2024-01-10T07:31:11;22.57;;;16.00;;
870;SDS011;422;51.280;7.236;2024-01-10T07:33:39;20.50;;;15.50;;
870;SDS011;422;51.280;7.236;2024-01-10T07:36:07;22.13;;;15.50;;
870;SDS011;422;51.280;7.236;2024-01-10T07:38:35;20.03;;;14.10;;
870;SDS011;422;51.280;7.236;2024-01-10T07:41:02;20.23;;;14.57;;
870;SDS011;422;51.280;7.236;2024-01-10T07:43:29;18.60;;;13.90;;
870;SDS011;422;51.280;7.236;2024-01-10T07:45:56;20.40;;;14.50;;
870;SDS011;422;51.280;7.236;2024-01-10T07:48:26;23.67;;;15.37;;
870;SDS011;422;51.280;7.236;2024-01-10T07:50:55;20.50;;;14.13;;
870;SDS011;422;51.280;7.236;2024-01-10T07:53:24;18.60;;;12.67;;
870;SDS011;422;51.280;7.236;2024-01-10T07:55:52;19.87;;;12.43;;
870;SDS011;422;51.280;7.236;2024-01-10T07:58:19;18.80;;;13.73;;
870;SDS011;422;51.280;7.236;2024-01-10T08:00:47;20.40;;;13.37;;
870;SDS011;422;51.280;7.236;2024-01-10T08:03:14;18.10;;;13.67;;
870;SDS011;422;51.280;7.236;2024-01-10T08:05:42;24.00;;;14.70;;
870;SDS011;422;51.280;7.236;2024-01-10T08:08:09;19.97;;;13.17;;
870;SDS011;422;51.280;7.236;2024-01-10T08:10:40;24.47;;;14.43;;
870;SDS011;422;51.280;7.236;2024-01-10T08:13:08;19.63;;;13.57;;
870;SDS011;422;51.280;7.236;2024-01-10T08:15:36;21.47;;;15.40;;
870;SDS011;422;51.280;7.236;2024-01-10T08:18:03;28.50;;;16.73;;
870;SDS011;422;51.280;7.236;2024-01-10T08:20:32;24.47;;;16.30;;
870;SDS011;422;51.280;7.236;2024-01-10T08:23:00;24.33;;;14.83;;
870;SDS011;422;51.280;7.236;2024-01-10T08:25:27;23.97;;;15.87;;
870;SDS011;422;51.280;7.236;2024-01-10T08:27:56;21.80;;;13.40;;
870;SDS011;422;51.280;7.236;2024-01-10T08:30:24;20.87;;;14.97;;
870;SDS011;422;51.280;7.236;2024-01-10T08:32:51;23.93;;;15.17;;
870;SDS011;422;51.280;7.236;2024-01-10T08:35:19;25.17;;;15.57;;
870;SDS011;422;51.280;7.236;2024-01-10T08:37:47;23.40;;;15.27;;
870;SDS011;422;51.280;7.236;2024-01-10T08:40:14;26.30;;;16.47;;
870;SDS011;422;51.280;7.236;2024-01-10T08:42:42;19.53;;;13.87;;
870;SDS011;422;51.280;7.236;2024-01-10T08:45:11;22.20;;;15.23;;
870;SDS011;422;51.280;7.236;2024-01-10T08:47:40;20.53;;;13.63;;
870;SDS011;422;51.280;7.236;2024-01-10T08:50:08;20.60;;;13.97;;
870;SDS011;422;51.280;7.236;2024-01-10T08:52:36;19.83;;;13.17;;
870;SDS011;422;51.280;7.236;2024-01-10T08:55:04;21.47;;;13.10;;
870;SDS011;422;51.280;7.236;2024-01-10T08:57:32;25.90;;;15.20;;
870;SDS011;422;51.280;7.236;2024-01-10T09:00:00;27.23;;;21.40;;
870;SDS011;422;51.280;7.236;2024-01-10T09:02:32;22.60;;;13.90;;
870;SDS011;422;51.280;7.236;2024-01-10T09:05:02;23.30;;;15.03;;
870;SDS011;422;51.280;7.236;2024-01-10T09:07:29;21.67;;;13.57;;
870;SDS011;422;51.280;7.236;2024-01-10T09:09:57;21.93;;;13.97;;
870;SDS011;422;51.280;7.236;2024-01-10T09:12:24;20.50;;;14.07;;
870;SDS011;422;51.280;7.236;2024-01-10T09:14:51;21.53;;;13.80;;
870;SDS011;422;51.280;7.236;2024-01-10T09:17:19;19.30;;;13.90;;
870;SDS011;422;51.280;7.236;2024-01-10T09:19:48;22.53;;;14.13;;
870;SDS011;422;51.280;7.236;2024-01-10T09:22:16;24.40;;;14.80;;
870;SDS011;422;51.280;7.236;2024-01-10T09:24:44;18.90;;;13.93;;
870;SDS011;422;51.280;7.236;2024-01-10T09:27:11;19.93;;;12.97;;
870;SDS011;422;51.280;7.236;2024-01-10T09:29:39;21.07;;;13.30;;
870;SDS011;422;51.280;7.236;2024-01-10T09:32:06;22.37;;;13.90;;
870;SDS011;422;51.280;7.236;2024-01-10T09:34:34;22.73;;;14.63;;
870;SDS011;422;51.280;7.236;2024-01-10T09:37:02;20.23;;;14.53;;
870;SDS011;422;51.280;7.236;2024-01-10T09:39:30;18.27;;;14.30;;
870;SDS011;422;51.280;7.236;2024-01-10T09:41:57;19.43;;;13.87;;
870;SDS011;422;51.280;7.236;2024-01-10T09:44:26;21.37;;;13.60;;
870;SDS011;422;51.280;7.236;2024-01-10T09:46:54;19.40;;;13.30;;
870;SDS011;422;51.280;7.236;2024-01-10T09:49:22;24.23;;;14.50;;
870;SDS011;422;51.280;7.236;2024-01-10T09:51:50;20.20;;;13.27;;
870;SDS011;422;51.280;7.236;2024-01-10T09:54:26;19.60;;;13.37;;
870;SDS011;422;51.280;7.236;2024-01-10T09:56:55;20.70;;;13.50;;
870;SDS011;422;51.280;7.236;2024-01-10T09:59:23;21.60;;;12.97;;
870;SDS011;422;51.280;7.236;2024-01-10T10:01:51;18.50;;;12.90;;
870;SDS011;422;51.280;7.236;2024-01-10T10:04:19;23.50;;;12.77;;
870;SDS011;422;51.280;7.236;2024-01-10T10:06:55;19.67;;;12.60;;
870;SDS011;422;51.280;7.236;2024-01-10T10:09:27;21.63;;;13.40;;
870;SDS011;422;51.280;7.236;2024-01-10T10:11:56;20.00;;;12.43;;
870;SDS011;422;51.280;7.236;2024-01-10T10:14:24;20.43;;;13.80;;
870;SDS011;422;51.280;7.236;2024-01-10T10:16:55;19.53;;;13.03;;
870;SDS011;422;51.280;7.236;2024-01-10T10:19:22;19.47;;;13.13;;
870;SDS011;422;51.280;7.236;2024-01-10T10:21:51;23.23;;;13.53;;
870;SDS011;422;51.280;7.236;2024-01-10T10:24:18;20.33;;;13.50;;
870;SDS011;422;51.280;7.236;2024-01-10T10:26:48;19.70;;;13.57;;
870;SDS011;422;51.280;7.236;2024-01-10T10:29:17;22.10;;;14.50;;
870;SDS011;422;51.280;7.236;2024-01-10T10:31:47;23.07;;;13.17;;
870;SDS011;422;51.280;7.236;2024-01-10T10:34:16;24.90;;;14.80;;
870;SDS011;422;51.280;7.236;2024-01-10T10:36:48;25.00;;;14.77;;
870;SDS011;422;51.280;7.236;2024-01-10T10:39:16;23.70;;;15.97;;
870;SDS011;422;51.280;7.236;2024-01-10T10:41:43;21.10;;;14.30;;
870;SDS011;422;51.280;7.236;2024-01-10T10:44:17;21.47;;;14.27;;
870;SDS011;422;51.280;7.236;2024-01-10T10:46:48;21.53;;;14.63;;
870;SDS011;422;51.280;7.236;2024-01-10T10:49:19;21.63;;;13.27;;
870;SDS011;422;51.280;7.236;2024-01-10T10:51:54;22.07;;;14.37;;
870;SDS011;422;51.280;7.236;2024-01-10T10:54:28;23.00;;;14.97;;
870;SDS011;422;51.280;7.236;2024-01-10T10:56:59;23.13;;;14.63;;
870;SDS011;422;51.280;7.236;2024-01-10T10:59:29;19.17;;;13.37;;
870;SDS011;422;51.280;7.236;2024-01-10T11:02:00;23.50;;;14.60;;
870;SDS011;422;51.280;7.236;2024-01-10T11:04:28;20.23;;;13.93;;
870;SDS011;422;51.280;7.236;2024-01-10T11:06:56;25.93;;;16.03;;
870;SDS011;422;51.280;7.236;2024-01-10T11:09:24;21.43;;;14.63;;
870;SDS011;422;51.280;7.236;2024-01-10T11:12:00;23.30;;;14.53;;
870;SDS011;422;51.280;7.236;2024-01-10T11:14:49;20.03;;;13.83;;
870;SDS011;422;51.280;7.236;2024-01-10T11:20:27;22.37;;;13.97;;
870;SDS011;422;51.280;7.236;2024-01-10T11:23:12;22.73;;;14.33;;
870;SDS011;422;51.280;7.236;2024-01-10T11:25:58;16.47;;;12.80;;
870;SDS011;422;51.280;7.236;2024-01-10T11:28:30;24.03;;;14.13;;
870;SDS011;422;51.280;7.236;2024-01-10T11:30:58;19.83;;;13.17;;
870;SDS011;422;51.280;7.236;2024-01-10T11:33:30;20.17;;;15.03;;
870;SDS011;422;51.280;7.236;2024-01-10T11:36:14;25.17;;;14.27;;
870;SDS011;422;51.280;7.236;2024-01-10T11:38:43;21.00;;;12.73;;
870;SDS011;422;51.280;7.236;2024-01-10T11:41:21;20.50;;;13.60;;
870;SDS011;422;51.280;7.236;2024-01-10T11:47:07;16.57;;;11.87;;
870;SDS011;422;51.280;7.236;2024-01-10T11:49:35;19.37;;;12.87;;
870;SDS011;422;51.280;7.236;2024-01-10T11:52:03;18.50;;;11.67;;
870;SDS011;422;51.280;7.236;2024-01-10T11:54:40;16.67;;;12.90;;
870;SDS011;422;51.280;7.236;2024-01-10T11:57:10;16.40;;;12.20;;
870;SDS011;422;51.280;7.236;2024-01-10T11:59:38;19.40;;;12.90;;
870;SDS011;422;51.280;7.236;2024-01-10T12:02:10;22.20;;;12.93;;
870;SDS011;422;51.280;7.236;2024-01-10T12:04:39;15.47;;;12.50;;
870;SDS011;422;51.280;7.236;2024-01-10T12:07:07;18.37;;;12.60;;
870;SDS011;422;51.280;7.236;2024-01-10T12:09:35;17.50;;;12.23;;
870;SDS011;422;51.280;7.236;2024-01-10T12:12:02;16.90;;;10.23;;
870;SDS011;422;51.280;7.236;2024-01-10T12:14:30;17.67;;;11.57;;
870;SDS011;422;51.280;7.236;2024-01-10T12:16:58;15.73;;;11.50;;
870;SDS011;422;51.280;7.236;2024-01-10T12:19:28;17.17;;;11.90;;
870;SDS011;422;51.280;7.236;2024-01-10T12:21:56;17.37;;;12.80;;
870;SDS011;422;51.280;7.236;2024-01-10T12:24:24;21.80;;;12.10;;
870;SDS011;422;51.280;7.236;2024-01-10T12:26:56;18.60;;;12.27;;
870;SDS011;422;51.280;7.236;2024-01-10T12:29:23;16.83;;;13.03;;
870;SDS011;422;51.280;7.236;2024-01-10T12:31:51;19.27;;;12.40;;
870;SDS011;422;51.280;7.236;2024-01-10T12:34:19;18.07;;;12.17;;
870;SDS011;422;51.280;7.236;2024-01-10T12:36:49;14.13;;;11.03;;
870;SDS011;422;51.280;7.236;2024-01-10T12:39:22;17.37;;;13.50;;
870;SDS011;422;51.280;7.236;2024-01-10T12:41:50;18.33;;;11.67;;
870;SDS011;422;51.280;7.236;2024-01-10T12:44:18;21.47;;;12.60;;
870;SDS011;422;51.280;7.236;2024-01-10T12:46:49;15.17;;;12.00;;
870;SDS011;422;51.280;7.236;2024-01-10T12:49:18;20.10;;;13.20;;
870;SDS011;422;51.280;7.236;2024-01-10T12:51:46;22.97;;;14.70;;
870;SDS011;422;51.280;7.236;2024-01-10T12:54:15;20.37;;;14.97;;
870;SDS011;422;51.280;7.236;2024-01-10T12:56:43;22.47;;;15.00;;
870;SDS011;422;51.280;7.236;2024-01-10T12:59:11;27.37;;;16.23;;
870;SDS011;422;51.280;7.236;2024-01-10T13:01:38;24.00;;;17.10;;
870;SDS011;422;51.280;7.236;2024-01-10T13:04:07;26.77;;;16.10;;
870;SDS011;422;51.280;7.236;2024-01-10T13:06:34;21.57;;;15.90;;
870;SDS011;422;51.280;7.236;2024-01-10T13:09:03;29.90;;;16.60;;
870;SDS011;422;51.280;7.236;2024-01-10T13:11:31;21.70;;;15.80;;
870;SDS011;422;51.280;7.236;2024-01-10T13:13:59;24.40;;;16.50;;
870;SDS011;422;51.280;7.236;2024-01-10T13:16:27;26.17;;;16.33;;
870;SDS011;422;51.280;7.236;2024-01-10T13:18:54;27.67;;;17.10;;
870;SDS011;422;51.280;7.236;2024-01-10T13:21:22;28.27;;;18.20;;
870;SDS011;422;51.280;7.236;2024-01-10T13:23:51;23.50;;;16.70;;
870;SDS011;422;51.280;7.236;2024-01-10T13:26:20;29.00;;;17.60;;
870;SDS011;422;51.280;7.236;2024-01-10T13:28:47;25.30;;;16.60;;
870;SDS011;422;51.280;7.236;2024-01-10T13:31:16;25.23;;;16.87;;
870;SDS011;422;51.280;7.236;2024-01-10T13:33:44;25.83;;;16.20;;
870;SDS011;422;51.280;7.236;2024-01-10T13:36:11;25.00;;;16.53;;
870;SDS011;422;51.280;7.236;2024-01-10T13:38:39;24.63;;;17.47;;
870;SDS011;422;51.280;7.236;2024-01-10T13:41:06;27.07;;;18.87;;
870;SDS011;422;51.280;7.236;2024-01-10T13:43:35;27.00;;;19.97;;
870;SDS011;422;51.280;7.236;2024-01-10T13:46:03;30.90;;;20.70;;
870;SDS011;422;51.280;7.236;2024-01-10T13:48:30;29.23;;;20.40;;
870;SDS011;422;51.280;7.236;2024-01-10T13:50:58;27.63;;;19.00;;
870;SDS011;422;51.280;7.236;2024-01-10T13:53:25;28.40;;;19.30;;
870;SDS011;422;51.280;7.236;2024-01-10T13:55:53;31.87;;;19.63;;
870;SDS011;422;51.280;7.236;2024-01-10T13:58:20;29.07;;;18.03;;
870;SDS011;422;51.280;7.236;2024-01-10T14:00:50;28.67;;;18.03;;
870;SDS011;422;51.280;7.236;2024-01-10T14:03:18;33.40;;;20.77;;
870;SDS011;422;51.280;7.236;2024-01-10T14:05:46;29.03;;;19.17;;
870;SDS011;422;51.280;7.236;2024-01-10T14:08:14;33.50;;;22.10;;
870;SDS011;422;51.280;7.236;2024-01-10T14:10:42;29.20;;;20.20;;
870;SDS011;422;51.280;7.236;2024-01-10T14:13:10;28.60;;;18.10;;
870;SDS011;422;51.280;7.236;2024-01-10T14:15:37;29.47;;;19.47;;
870;SDS011;422;51.280;7.236;2024-01-10T14:18:06;29.70;;;18.60;;
870;SDS011;422;51.280;7.236;2024-01-10T14:20:34;29.70;;;19.00;;
870;SDS011;422;51.280;7.236;2024-01-10T14:23:02;23.23;;;16.67;;
870;SDS011;422;51.280;7.236;2024-01-10T14:25:31;29.53;;;19.60;;
870;SDS011;422;51.280;7.236;2024-01-10T14:27:59;27.50;;;19.20;;
870;SDS011;422;51.280;7.236;2024-01-10T14:30:28;31.93;;;21.07;;
870;SDS011;422;51.280;7.236;2024-01-10T14:32:57;30.50;;;21.37;;
870;SDS011;422;51.280;7.236;2024-01-10T14:35:26;30.60;;;21.00;;
870;SDS011;422;51.280;7.236;2024-01-10T14:37:54;28.87;;;20.03;;
870;SDS011;422;51.280;7.236;2024-01-10T14:40:23;29.20;;;20.23;;
870;SDS011;422;51.280;7.236;2024-01-10T14:42:50;35.03;;;22.10;;
870;SDS011;422;51.280;7.236;2024-01-10T14:45:18;35.77;;;22.47;;
870;SDS011;422;51.280;7.236;2024-01-10T14:47:45;28.60;;;21.53;;
870;SDS011;422;51.280;7.236;2024-01-10T14:50:13;35.80;;;19.70;;
870;SDS011;422;51.280;7.236;2024-01-10T14:52:42;32.30;;;19.97;;
870;SDS011;422;51.280;7.236;2024-01-10T14:55:09;30.20;;;20.30;;
870;SDS011;422;51.280;7.236;2024-01-10T14:57:37;30.67;;;19.23;;
870;SDS011;422;51.280;7.236;2024-01-10T15:00:05;30.00;;;20.50;;
870;SDS011;422;51.280;7.236;2024-01-10T15:02:35;34.83;;;21.80;;
870;SDS011;422;51.280;7.236;2024-01-10T15:05:03;33.33;;;21.30;;
870;SDS011;422;51.280;7.236;2024-01-10T15:07:31;31.27;;;21.33;;
870;SDS011;422;51.280;7.236;2024-01-10T15:10:02;35.67;;;22.40;;
870;SDS011;422;51.280;7.236;2024-01-10T15:12:30;40.00;;;26.60;;
870;SDS011;422;51.280;7.236;2024-01-10T15:14:57;38.77;;;28.13;;
870;SDS011;422;51.280;7.236;2024-01-10T15:17:26;33.63;;;23.77;;
870;SDS011;422;51.280;7.236;2024-01-10T15:19:54;33.97;;;22.20;;
870;SDS011;422;51.280;7.236;2024-01-10T15:22:21;32.97;;;21.30;;
870;SDS011;422;51.280;7.236;2024-01-10T15:24:49;37.83;;;24.47;;
870;SDS011;422;51.280;7.236;2024-01-10T15:27:18;29.97;;;20.83;;